OMRK/RKT METAR and TAF weather

Enter ICAO airport designator
Station Type Date Time Source
OMRK METAR 2019/12/13 03:00 UTC NOAA

OMRK 130300Z 24002KT 4000 BR NSC 14/14 Q1014 A2996


Station Type Date Time Source
OMRK Decoded METAR 2019/12/13 03:00 UTC NOAA

Ras Al Khaimah International Airport, United Arab Emirates (OMRK) 25-37N 055-56E 31M
Dec 12, 2019 - 10:00 PM EST / 2019.12.13 0300 UTC
Wind: from the WSW (240 degrees) at 2 MPH (2 KT):0
Visibility: 2 mile(s):0
Weather: mist
Temperature: 57 F (14 C)
Dew Point: 57 F (14 C)
Relative Humidity: 100%
Pressure (altimeter): 29.96 in. Hg (1014 hPa)
ob: OMRK 130300Z 24002KT 4000 BR NSC 14/14 Q1014 A2996
cycle: 3

Station Type Date Time Source
OMRK TAF 2019/12/12 18:02 UTC NOAA

TAF OMRK 121657Z 1218/1400 12005KT 8000 NSC PROB30 1220/1305 1500 BR
BECMG 1308/1310 35010KT
BECMG 1313/1315 10007KT PROB30
TEMPO 1314/1317 VRB15G25KT FEW040TCU

Example: see airport list